x

Smith Island, Wa (sisw1) Weather Station

11:00 - Fri 22nd May 2015 All times are PDT. -7 hours from GMT.

  • Wind
    6mph, 7mph gusts
  • Air Temp 51°f
  • Sea Pressure 1017.7mb
  • Smith Island, Wa
  • Smith Island, Wa

More Historic Weather Station data

Upgrade to MSW Pro to gain access to the past 30 days of data for over 8000 Wavebouys and Weather Stations around the globe.

Join Pro

Comparision Forecast

View Surf forecast
   
ven. 05/22 11:00 6 7 mph 1017.7mb 51f
10:00 10 11 mph 1017.1mb 52f
9:00 8 9 mph 1016.6mb 51f
8:00 9 10 mph 1015.9mb 52f
7:00 10
mph
1015.8mb 52f
6:00 6 7 mph 1015.9mb 53f
5:00 9 10 mph 1015.9mb 54f
4:00 9
mph
1015.9mb 55f
3:00 5 6 mph 1015.8mb 55f
2:00 9
mph
1015.7mb 52f
1:00 8 10 mph 1015.9mb 52f
12:00 6 8 mph 1015.6mb 53f
11:00 6 7 mph 1015.2mb 52f
10:00 10 11 mph 1014.8mb 51f
9:00 14 16 mph 1014.6mb 51f
8:00 18 20 mph 1014.1mb 50f
7:00 18 21 mph 1013.8mb 50f
6:00 21 22 mph 1013.4mb 50f
5:00 23 25 mph 1013mb 50f
4:00 25 28 mph 1012.6mb 49f
3:00 25 28 mph 1012.1mb 49f
2:00 24 26 mph 1012.1mb 49f
1:00 23 26 mph 1011.8mb 49f
12:00 21 23 mph 1011.4mb 49f
jeu. 05/21 11:00 20 23 mph 1011.1mb 50f
10:00 18 21 mph 1011.1mb 50f
9:00 17 20 mph 1010.6mb 52f
8:00 14
mph
1010.3mb 51f
7:00 18 20 mph 1010.1mb 52f
6:00 14 18 mph 1010.3mb 52f
5:00 10 13 mph 1010.4mb 52f
4:00 9 13 mph 1010.3mb 54f
3:00 7 10 mph 1010.7mb 55f
2:00 6
mph
1011.3mb 53f
1:00 5
mph
1011.7mb 52f
12:00 2 5 mph 1012mb 51f
11:00 6 7 mph 1012.1mb 50f
10:00 7 9 mph 1012.3mb 49f
9:00 10 13 mph 1012.3mb 48f
8:00 10
mph
1012mb 48f
7:00 11 14 mph 1012.1mb 48f
6:00 14 16 mph 1011.9mb 48f
5:00 18 20 mph 1012mb 48f
4:00 14 15 mph 1012.1mb 48f
3:00 15 17 mph 1011.7mb 48f
2:00 14 15 mph 1011.7mb 49f
1:00 10 11 mph 1011.7mb 49f
12:00 5 7 mph 1011.8mb 50f
mer. 05/20 11:00 13 15 mph 1011.6mb 50f
10:00 6 7 mph 1012.1mb 51f
9:00 8 10 mph 1011.6mb 51f
8:00 11 14 mph 1011.5mb 52f
7:00 8 11 mph 1011.5mb 52f
6:00 6 7 mph 1012.1mb 54f
5:00 2
mph
1012.7mb 54f
4:00 3 7 mph 1013.2mb 53f
3:00 3 6 mph 1014.2mb 53f
2:00 5 6 mph 1014.9mb 52f
1:00 5 6 mph 1015.6mb 52f
12:00 9 10 mph 1016.1mb 51f
11:00 10 11 mph 1016.5mb 50f
10:00 10 11 mph 1016.6mb 50f
9:00 11 13 mph 1016.8mb 49f
8:00 14 15 mph 1016.8mb 49f
7:00 16 18 mph 1017.1mb 49f
6:00 21 22 mph 1016.7mb 49f
5:00 21 22 mph 1016.9mb 49f
4:00 24 28 mph 1016.5mb 49f
3:00 23 24 mph 1016.9mb 49f
2:00 24 29 mph 1016.8mb 49f
1:00 24 25 mph 1016.9mb 49f
12:00 18 21 mph 1016.9mb 49f
mar. 05/19 11:00 25 29 mph 1016.5mb 50f
10:00 23 26 mph 1017.1mb 50f
9:00 23 30 mph 1015.8mb 51f
8:00 22 24 mph 1015.7mb 51f
7:00 24 26 mph 1015.8mb 51f
6:00 23 24 mph 1016.5mb 52f
5:00 18 21 mph 1017mb 52f
4:00 15 16 mph 1017.5mb 54f
3:00 13 14 mph 1018.3mb 53f
2:00 9 10 mph 1018.8mb 55f
1:00 14 16 mph 1019.4mb 53f
12:00 16 17 mph 1019.6mb 51f
11:00 15 16 mph 1019.7mb 51f
10:00 15 17 mph 1019.7mb 50f
9:00 17 20 mph 1020mb 49f
8:00 18 20 mph 1019.7mb 49f